sensor_id;sensor_type;location;lat;lon;timestamp;temperature;humidity
30186;DHT22;31152;49.190;8.122;2023-02-28T00:01:30;0.90;94.10
30186;DHT22;31152;49.190;8.122;2023-02-28T00:03:59;0.90;94.40
30186;DHT22;31152;49.190;8.122;2023-02-28T00:06:26;0.90;94.80
30186;DHT22;31152;49.190;8.122;2023-02-28T00:08:53;0.80;95.00
30186;DHT22;31152;49.190;8.122;2023-02-28T00:11:20;0.80;95.40
30186;DHT22;31152;49.190;8.122;2023-02-28T00:13:47;0.70;95.70
30186;DHT22;31152;49.190;8.122;2023-02-28T00:16:17;0.70;95.90
30186;DHT22;31152;49.190;8.122;2023-02-28T00:18:44;0.60;96.00
30186;DHT22;31152;49.190;8.122;2023-02-28T00:21:11;0.60;96.10
30186;DHT22;31152;49.190;8.122;2023-02-28T00:23:40;0.60;96.30
30186;DHT22;31152;49.190;8.122;2023-02-28T00:26:10;0.50;96.50
30186;DHT22;31152;49.190;8.122;2023-02-28T00:28:37;0.50;96.60
30186;DHT22;31152;49.190;8.122;2023-02-28T00:31:06;0.50;96.70
30186;DHT22;31152;49.190;8.122;2023-02-28T00:33:32;0.60;96.80
30186;DHT22;31152;49.190;8.122;2023-02-28T00:36:07;0.50;96.90
30186;DHT22;31152;49.190;8.122;2023-02-28T00:38:37;0.60;97.40
30186;DHT22;31152;49.190;8.122;2023-02-28T00:41:04;0.50;97.20
30186;DHT22;31152;49.190;8.122;2023-02-28T00:43:37;0.60;97.30
30186;DHT22;31152;49.190;8.122;2023-02-28T00:46:04;0.60;97.40
30186;DHT22;31152;49.190;8.122;2023-02-28T00:48:32;0.60;97.40
30186;DHT22;31152;49.190;8.122;2023-02-28T00:50:58;0.60;97.50
30186;DHT22;31152;49.190;8.122;2023-02-28T00:53:25;0.60;97.60
30186;DHT22;31152;49.190;8.122;2023-02-28T00:55:54;0.60;97.70
30186;DHT22;31152;49.190;8.122;2023-02-28T00:58:21;0.60;97.80
30186;DHT22;31152;49.190;8.122;2023-02-28T01:00:48;0.60;98.00
30186;DHT22;31152;49.190;8.122;2023-02-28T01:03:19;0.60;98.20
30186;DHT22;31152;49.190;8.122;2023-02-28T01:05:48;0.60;98.40
30186;DHT22;31152;49.190;8.122;2023-02-28T01:08:15;0.50;98.50
30186;DHT22;31152;49.190;8.122;2023-02-28T01:10:42;0.50;98.70
30186;DHT22;31152;49.190;8.122;2023-02-28T01:13:09;0.60;99.00
30186;DHT22;31152;49.190;8.122;2023-02-28T01:15:36;0.50;99.10
30186;DHT22;31152;49.190;8.122;2023-02-28T01:18:04;0.50;99.30
30186;DHT22;31152;49.190;8.122;2023-02-28T01:20:36;0.50;99.40
30186;DHT22;31152;49.190;8.122;2023-02-28T01:23:03;0.50;99.60
30186;DHT22;31152;49.190;8.122;2023-02-28T01:25:33;0.50;99.80
30186;DHT22;31152;49.190;8.122;2023-02-28T01:28:03;0.50;99.90
30186;DHT22;31152;49.190;8.122;2023-02-28T01:30:30;0.60;99.90
30186;DHT22;31152;49.190;8.122;2023-02-28T01:32:59;0.50;99.90
30186;DHT22;31152;49.190;8.122;2023-02-28T01:35:26;0.60;99.90
30186;DHT22;31152;49.190;8.122;2023-02-28T01:37:53;0.50;99.90
30186;DHT22;31152;49.190;8.122;2023-02-28T01:40:19;0.60;99.90
30186;DHT22;31152;49.190;8.122;2023-02-28T01:42:46;0.60;99.90
30186;DHT22;31152;49.190;8.122;2023-02-28T01:45:26;0.60;99.90
30186;DHT22;31152;49.190;8.122;2023-02-28T01:48:03;0.60;99.90
30186;DHT22;31152;49.190;8.122;2023-02-28T01:50:35;0.60;99.90
30186;DHT22;31152;49.190;8.122;2023-02-28T01:53:07;0.60;99.90
30186;DHT22;31152;49.190;8.122;2023-02-28T01:55:37;0.50;99.90
30186;DHT22;31152;49.190;8.122;2023-02-28T01:58:06;0.50;99.90
30186;DHT22;31152;49.190;8.122;2023-02-28T02:00:33;0.50;99.90
30186;DHT22;31152;49.190;8.122;2023-02-28T02:03:06;0.50;99.90
30186;DHT22;31152;49.190;8.122;2023-02-28T02:05:34;0.40;99.90
30186;DHT22;31152;49.190;8.122;2023-02-28T02:08:05;0.40;99.90
30186;DHT22;31152;49.190;8.122;2023-02-28T02:10:39;0.40;99.90
30186;DHT22;31152;49.190;8.122;2023-02-28T02:18:48;0.20;99.90
30186;DHT22;31152;49.190;8.122;2023-02-28T02:34:56;0.00;99.90
30186;DHT22;31152;49.190;8.122;2023-02-28T02:37:51;0.00;99.90
30186;DHT22;31152;49.190;8.122;2023-02-28T02:40:22;-0.10;99.90
30186;DHT22;31152;49.190;8.122;2023-02-28T02:43:12;-0.10;99.90
30186;DHT22;31152;49.190;8.122;2023-02-28T02:45:53;-0.10;99.90
30186;DHT22;31152;49.190;8.122;2023-02-28T02:48:26;-0.10;99.90
30186;DHT22;31152;49.190;8.122;2023-02-28T02:50:59;-0.20;99.90
30186;DHT22;31152;49.190;8.122;2023-02-28T02:53:50;-0.20;99.90
30186;DHT22;31152;49.190;8.122;2023-02-28T02:56:20;-0.30;99.90
30186;DHT22;31152;49.190;8.122;2023-02-28T02:58:51;-0.30;99.90
30186;DHT22;31152;49.190;8.122;2023-02-28T03:01:22;-0.30;99.90
30186;DHT22;31152;49.190;8.122;2023-02-28T03:03:57;-0.30;99.90
30186;DHT22;31152;49.190;8.122;2023-02-28T03:06:25;-0.30;99.90
30186;DHT22;31152;49.190;8.122;2023-02-28T03:08:52;-0.40;99.90
30186;DHT22;31152;49.190;8.122;2023-02-28T03:11:21;-0.40;99.90
30186;DHT22;31152;49.190;8.122;2023-02-28T03:17:11;-0.50;99.90
30186;DHT22;31152;49.190;8.122;2023-02-28T03:22:50;-0.50;99.90
30186;DHT22;31152;49.190;8.122;2023-02-28T03:25:41;-0.60;99.90
30186;DHT22;31152;49.190;8.122;2023-02-28T03:28:40;-0.60;99.90
30186;DHT22;31152;49.190;8.122;2023-02-28T03:31:38;-0.60;99.90
30186;DHT22;31152;49.190;8.122;2023-02-28T03:34:14;-0.60;99.90
30186;DHT22;31152;49.190;8.122;2023-02-28T03:36:48;-0.60;99.90
30186;DHT22;31152;49.190;8.122;2023-02-28T03:39:29;-0.70;99.90
30186;DHT22;31152;49.190;8.122;2023-02-28T03:42:01;-0.70;99.90
30186;DHT22;31152;49.190;8.122;2023-02-28T03:44:48;-0.70;99.90
30186;DHT22;31152;49.190;8.122;2023-02-28T03:47:29;-0.70;99.90
30186;DHT22;31152;49.190;8.122;2023-02-28T03:50:17;-0.70;99.90
30186;DHT22;31152;49.190;8.122;2023-02-28T03:55:55;-0.70;99.90
30186;DHT22;31152;49.190;8.122;2023-02-28T03:58:41;-0.70;99.90
30186;DHT22;31152;49.190;8.122;2023-02-28T04:01:16;-0.70;99.90
30186;DHT22;31152;49.190;8.122;2023-02-28T04:03:46;-0.70;99.90
30186;DHT22;31152;49.190;8.122;2023-02-28T04:06:16;-0.70;99.90
30186;DHT22;31152;49.190;8.122;2023-02-28T04:08:44;-0.70;99.90
30186;DHT22;31152;49.190;8.122;2023-02-28T04:11:27;-0.70;99.90
30186;DHT22;31152;49.190;8.122;2023-02-28T04:13:56;-0.80;99.90
30186;DHT22;31152;49.190;8.122;2023-02-28T04:16:23;-0.70;99.90
30186;DHT22;31152;49.190;8.122;2023-02-28T04:19:01;-0.70;99.90
30186;DHT22;31152;49.190;8.122;2023-02-28T04:21:34;-0.70;99.90
30186;DHT22;31152;49.190;8.122;2023-02-28T04:24:01;-0.70;99.90
30186;DHT22;31152;49.190;8.122;2023-02-28T04:26:33;-0.70;99.90
30186;DHT22;31152;49.190;8.122;2023-02-28T04:29:00;-0.70;99.90
30186;DHT22;31152;49.190;8.122;2023-02-28T04:31:29;-0.70;99.90
30186;DHT22;31152;49.190;8.122;2023-02-28T04:33:57;-0.70;99.90
30186;DHT22;31152;49.190;8.122;2023-02-28T04:36:26;-0.70;99.90
30186;DHT22;31152;49.190;8.122;2023-02-28T04:38:56;-0.70;99.90
30186;DHT22;31152;49.190;8.122;2023-02-28T04:41:23;-0.70;99.90
30186;DHT22;31152;49.190;8.122;2023-02-28T04:43:57;-0.70;99.90
30186;DHT22;31152;49.190;8.122;2023-02-28T04:46:24;-0.70;99.90
30186;DHT22;31152;49.190;8.122;2023-02-28T04:48:50;-0.70;99.90
30186;DHT22;31152;49.190;8.122;2023-02-28T04:51:18;-0.70;99.90
30186;DHT22;31152;49.190;8.122;2023-02-28T04:53:46;-0.70;99.90
30186;DHT22;31152;49.190;8.122;2023-02-28T04:56:15;-0.60;99.90
30186;DHT22;31152;49.190;8.122;2023-02-28T04:58:42;-0.60;99.90
30186;DHT22;31152;49.190;8.122;2023-02-28T05:01:47;-0.60;99.90
30186;DHT22;31152;49.190;8.122;2023-02-28T05:04:14;-0.60;99.90
30186;DHT22;31152;49.190;8.122;2023-02-28T05:06:41;-0.60;99.90
30186;DHT22;31152;49.190;8.122;2023-02-28T05:09:08;-0.60;99.90
30186;DHT22;31152;49.190;8.122;2023-02-28T05:11:37;-0.60;99.90
30186;DHT22;31152;49.190;8.122;2023-02-28T05:14:10;-0.50;99.90
30186;DHT22;31152;49.190;8.122;2023-02-28T05:16:37;-0.50;99.90
30186;DHT22;31152;49.190;8.122;2023-02-28T05:19:04;-0.50;99.90
30186;DHT22;31152;49.190;8.122;2023-02-28T05:21:48;-0.50;99.90
30186;DHT22;31152;49.190;8.122;2023-02-28T05:24:15;-0.50;99.90
30186;DHT22;31152;49.190;8.122;2023-02-28T05:26:53;-0.40;99.90
30186;DHT22;31152;49.190;8.122;2023-02-28T05:29:20;-0.40;99.90
30186;DHT22;31152;49.190;8.122;2023-02-28T05:31:49;-0.40;99.90
30186;DHT22;31152;49.190;8.122;2023-02-28T05:34:16;-0.40;99.90
30186;DHT22;31152;49.190;8.122;2023-02-28T05:36:43;-0.40;99.90
30186;DHT22;31152;49.190;8.122;2023-02-28T05:39:13;-0.40;99.90
30186;DHT22;31152;49.190;8.122;2023-02-28T05:41:43;-0.40;99.90
30186;DHT22;31152;49.190;8.122;2023-02-28T05:44:10;-0.40;99.90
30186;DHT22;31152;49.190;8.122;2023-02-28T05:46:37;-0.30;99.90
30186;DHT22;31152;49.190;8.122;2023-02-28T05:49:06;-0.40;99.90
30186;DHT22;31152;49.190;8.122;2023-02-28T05:51:35;-0.30;99.90
30186;DHT22;31152;49.190;8.122;2023-02-28T05:54:06;-0.30;99.90
30186;DHT22;31152;49.190;8.122;2023-02-28T05:56:37;-0.30;99.90
30186;DHT22;31152;49.190;8.122;2023-02-28T05:59:06;-0.30;99.90
30186;DHT22;31152;49.190;8.122;2023-02-28T06:04:03;-0.20;99.90
30186;DHT22;31152;49.190;8.122;2023-02-28T06:06:30;-0.20;99.90
30186;DHT22;31152;49.190;8.122;2023-02-28T06:08:57;-0.20;99.90
30186;DHT22;31152;49.190;8.122;2023-02-28T06:11:24;-0.10;99.90
30186;DHT22;31152;49.190;8.122;2023-02-28T06:13:56;-0.10;99.90
30186;DHT22;31152;49.190;8.122;2023-02-28T06:16:24;-0.10;99.90
30186;DHT22;31152;49.190;8.122;2023-02-28T06:18:51;-0.10;99.90
30186;DHT22;31152;49.190;8.122;2023-02-28T06:21:19;-0.10;99.90
30186;DHT22;31152;49.190;8.122;2023-02-28T06:23:48;0.00;99.90
30186;DHT22;31152;49.190;8.122;2023-02-28T06:26:17;0.00;99.90
30186;DHT22;31152;49.190;8.122;2023-02-28T06:28:46;0.10;99.90
30186;DHT22;31152;49.190;8.122;2023-02-28T06:31:17;0.10;99.90
30186;DHT22;31152;49.190;8.122;2023-02-28T06:33:45;0.20;99.90
30186;DHT22;31152;49.190;8.122;2023-02-28T06:36:13;0.20;99.90
30186;DHT22;31152;49.190;8.122;2023-02-28T06:38:45;0.20;99.90
30186;DHT22;31152;49.190;8.122;2023-02-28T06:41:12;0.20;99.90
30186;DHT22;31152;49.190;8.122;2023-02-28T06:43:41;0.20;99.90
30186;DHT22;31152;49.190;8.122;2023-02-28T06:46:12;0.20;99.90
30186;DHT22;31152;49.190;8.122;2023-02-28T06:48:40;0.20;99.90
30186;DHT22;31152;49.190;8.122;2023-02-28T06:51:13;0.20;99.90
30186;DHT22;31152;49.190;8.122;2023-02-28T06:53:42;0.20;99.90
30186;DHT22;31152;49.190;8.122;2023-02-28T06:56:11;0.20;99.90
30186;DHT22;31152;49.190;8.122;2023-02-28T06:58:39;0.20;99.90
30186;DHT22;31152;49.190;8.122;2023-02-28T07:01:09;0.20;99.90
30186;DHT22;31152;49.190;8.122;2023-02-28T07:03:36;0.20;99.90
30186;DHT22;31152;49.190;8.122;2023-02-28T07:06:06;0.20;99.90
30186;DHT22;31152;49.190;8.122;2023-02-28T07:08:35;0.20;99.90
30186;DHT22;31152;49.190;8.122;2023-02-28T07:11:03;0.20;99.90
30186;DHT22;31152;49.190;8.122;2023-02-28T07:13:33;0.20;99.90
30186;DHT22;31152;49.190;8.122;2023-02-28T07:16:02;0.30;99.90
30186;DHT22;31152;49.190;8.122;2023-02-28T07:18:30;0.30;99.90
30186;DHT22;31152;49.190;8.122;2023-02-28T07:20:57;0.30;99.90
30186;DHT22;31152;49.190;8.122;2023-02-28T07:23:24;0.40;99.90
30186;DHT22;31152;49.190;8.122;2023-02-28T07:25:53;0.40;99.90
30186;DHT22;31152;49.190;8.122;2023-02-28T07:28:22;0.40;99.90
30186;DHT22;31152;49.190;8.122;2023-02-28T07:30:48;0.50;99.90
30186;DHT22;31152;49.190;8.122;2023-02-28T07:33:16;0.50;99.90
30186;DHT22;31152;49.190;8.122;2023-02-28T07:35:42;0.60;99.90
30186;DHT22;31152;49.190;8.122;2023-02-28T07:38:10;0.60;99.90
30186;DHT22;31152;49.190;8.122;2023-02-28T07:40:37;0.60;99.90
30186;DHT22;31152;49.190;8.122;2023-02-28T07:43:04;0.70;99.90
30186;DHT22;31152;49.190;8.122;2023-02-28T07:45:31;0.70;99.90
30186;DHT22;31152;49.190;8.122;2023-02-28T07:48:01;0.70;99.90
30186;DHT22;31152;49.190;8.122;2023-02-28T07:50:28;0.80;99.90
30186;DHT22;31152;49.190;8.122;2023-02-28T07:52:59;0.80;99.90
30186;DHT22;31152;49.190;8.122;2023-02-28T07:55:28;0.80;99.90
30186;DHT22;31152;49.190;8.122;2023-02-28T07:57:54;0.90;99.90
30186;DHT22;31152;49.190;8.122;2023-02-28T08:00:25;0.90;99.90
30186;DHT22;31152;49.190;8.122;2023-02-28T08:02:54;0.90;99.90
30186;DHT22;31152;49.190;8.122;2023-02-28T08:05:20;1.00;99.90
30186;DHT22;31152;49.190;8.122;2023-02-28T08:07:49;1.00;99.90
30186;DHT22;31152;49.190;8.122;2023-02-28T08:10:16;1.00;99.90
30186;DHT22;31152;49.190;8.122;2023-02-28T08:12:43;1.10;99.90
30186;DHT22;31152;49.190;8.122;2023-02-28T08:15:09;1.20;99.90
30186;DHT22;31152;49.190;8.122;2023-02-28T08:17:36;1.20;99.90
30186;DHT22;31152;49.190;8.122;2023-02-28T08:20:06;1.30;99.90
30186;DHT22;31152;49.190;8.122;2023-02-28T08:22:33;1.30;99.90
30186;DHT22;31152;49.190;8.122;2023-02-28T08:25:00;1.40;99.90
30186;DHT22;31152;49.190;8.122;2023-02-28T08:27:27;1.40;99.90
30186;DHT22;31152;49.190;8.122;2023-02-28T08:29:53;1.50;99.90
30186;DHT22;31152;49.190;8.122;2023-02-28T08:32:20;1.50;99.90
30186;DHT22;31152;49.190;8.122;2023-02-28T08:34:55;1.60;99.90
30186;DHT22;31152;49.190;8.122;2023-02-28T08:37:22;1.70;99.90
30186;DHT22;31152;49.190;8.122;2023-02-28T08:39:51;1.70;99.90
30186;DHT22;31152;49.190;8.122;2023-02-28T08:42:23;1.70;99.90
30186;DHT22;31152;49.190;8.122;2023-02-28T08:44:50;1.80;99.90
30186;DHT22;31152;49.190;8.122;2023-02-28T08:47:19;1.80;99.90
30186;DHT22;31152;49.190;8.122;2023-02-28T08:49:46;1.80;99.90
30186;DHT22;31152;49.190;8.122;2023-02-28T08:52:12;1.80;99.90
30186;DHT22;31152;49.190;8.122;2023-02-28T08:54:39;1.80;99.90
30186;DHT22;31152;49.190;8.122;2023-02-28T08:57:06;1.90;99.90
30186;DHT22;31152;49.190;8.122;2023-02-28T08:59:33;1.90;99.90
30186;DHT22;31152;49.190;8.122;2023-02-28T09:02:00;2.00;99.90
30186;DHT22;31152;49.190;8.122;2023-02-28T09:04:29;2.00;99.90
30186;DHT22;31152;49.190;8.122;2023-02-28T09:06:57;2.10;99.90
30186;DHT22;31152;49.190;8.122;2023-02-28T09:09:24;2.20;99.90
30186;DHT22;31152;49.190;8.122;2023-02-28T09:11:51;2.20;99.90
30186;DHT22;31152;49.190;8.122;2023-02-28T09:14:17;2.30;99.90
30186;DHT22;31152;49.190;8.122;2023-02-28T09:16:44;2.40;99.90
30186;DHT22;31152;49.190;8.122;2023-02-28T09:19:12;2.40;99.90
30186;DHT22;31152;49.190;8.122;2023-02-28T09:21:39;2.60;99.90
30186;DHT22;31152;49.190;8.122;2023-02-28T09:24:06;2.70;99.90
30186;DHT22;31152;49.190;8.122;2023-02-28T09:26:33;2.70;99.90
30186;DHT22;31152;49.190;8.122;2023-02-28T09:29:12;2.90;99.90
30186;DHT22;31152;49.190;8.122;2023-02-28T09:31:43;3.10;99.90
30186;DHT22;31152;49.190;8.122;2023-02-28T09:34:10;3.40;99.90
30186;DHT22;31152;49.190;8.122;2023-02-28T09:36:37;3.50;99.90
30186;DHT22;31152;49.190;8.122;2023-02-28T09:39:12;3.80;99.90
30186;DHT22;31152;49.190;8.122;2023-02-28T09:41:42;4.10;99.60
30186;DHT22;31152;49.190;8.122;2023-02-28T09:44:35;4.40;98.90
30186;DHT22;31152;49.190;8.122;2023-02-28T09:49:41;5.40;96.60
30186;DHT22;31152;49.190;8.122;2023-02-28T09:52:21;5.80;95.30
30186;DHT22;31152;49.190;8.122;2023-02-28T09:54:50;6.30;94.60
30186;DHT22;31152;49.190;8.122;2023-02-28T09:57:37;6.70;93.20
30186;DHT22;31152;49.190;8.122;2023-02-28T10:00:22;7.10;91.60
30186;DHT22;31152;49.190;8.122;2023-02-28T10:05:53;7.70;89.50
30186;DHT22;31152;49.190;8.122;2023-02-28T10:08:36;8.20;86.80
30186;DHT22;31152;49.190;8.122;2023-02-28T10:11:11;8.60;85.20
30186;DHT22;31152;49.190;8.122;2023-02-28T10:13:56;9.20;82.00
30186;DHT22;31152;49.190;8.122;2023-02-28T10:19:34;10.70;73.50
30186;DHT22;31152;49.190;8.122;2023-02-28T10:22:14;11.50;69.50
30186;DHT22;31152;49.190;8.122;2023-02-28T10:24:45;12.00;63.50
30186;DHT22;31152;49.190;8.122;2023-02-28T10:27:24;11.80;62.00
30186;DHT22;31152;49.190;8.122;2023-02-28T10:29:59;12.10;62.90
30186;DHT22;31152;49.190;8.122;2023-02-28T10:32:31;12.50;62.00
30186;DHT22;31152;49.190;8.122;2023-02-28T10:35:17;13.00;58.00
30186;DHT22;31152;49.190;8.122;2023-02-28T10:37:48;13.10;57.50
30186;DHT22;31152;49.190;8.122;2023-02-28T10:40:30;13.30;56.30
30186;DHT22;31152;49.190;8.122;2023-02-28T10:43:04;12.90;55.20
30186;DHT22;31152;49.190;8.122;2023-02-28T10:45:33;13.20;57.00
30186;DHT22;31152;49.190;8.122;2023-02-28T10:50:52;13.40;54.50
30186;DHT22;31152;49.190;8.122;2023-02-28T10:53:28;13.60;53.40
30186;DHT22;31152;49.190;8.122;2023-02-28T10:56:01;13.70;51.50
30186;DHT22;31152;49.190;8.122;2023-02-28T11:01:34;14.50;50.60
30186;DHT22;31152;49.190;8.122;2023-02-28T11:04:02;14.90;48.70
30186;DHT22;31152;49.190;8.122;2023-02-28T11:06:33;15.00;47.20
30186;DHT22;31152;49.190;8.122;2023-02-28T11:09:02;14.80;47.90
30186;DHT22;31152;49.190;8.122;2023-02-28T11:11:40;15.00;47.30
30186;DHT22;31152;49.190;8.122;2023-02-28T11:14:40;14.80;46.50
30186;DHT22;31152;49.190;8.122;2023-02-28T11:17:27;14.10;47.00
30186;DHT22;31152;49.190;8.122;2023-02-28T11:20:01;13.00;48.70
30186;DHT22;31152;49.190;8.122;2023-02-28T11:22:32;12.20;50.70
30186;DHT22;31152;49.190;8.122;2023-02-28T11:25:16;12.10;51.60
30186;DHT22;31152;49.190;8.122;2023-02-28T11:27:53;12.10;51.50
30186;DHT22;31152;49.190;8.122;2023-02-28T11:30:32;11.90;51.50
30186;DHT22;31152;49.190;8.122;2023-02-28T11:33:18;11.90;52.60
30186;DHT22;31152;49.190;8.122;2023-02-28T11:35:49;12.10;51.20
30186;DHT22;31152;49.190;8.122;2023-02-28T11:38:19;12.00;51.30
30186;DHT22;31152;49.190;8.122;2023-02-28T11:40:57;12.00;52.10
30186;DHT22;31152;49.190;8.122;2023-02-28T11:49:05;13.50;50.90
30186;DHT22;31152;49.190;8.122;2023-02-28T11:51:48;14.40;49.30
30186;DHT22;31152;49.190;8.122;2023-02-28T12:02:24;16.30;45.10
30186;DHT22;31152;49.190;8.122;2023-02-28T12:10:25;15.60;44.50
30186;DHT22;31152;49.190;8.122;2023-02-28T12:27:12;16.00;43.30
30186;DHT22;31152;49.190;8.122;2023-02-28T12:30:46;16.00;43.30
30186;DHT22;31152;49.190;8.122;2023-02-28T12:33:07;15.70;43.60
30186;DHT22;31152;49.190;8.122;2023-02-28T12:38:12;15.50;43.40
30186;DHT22;31152;49.190;8.122;2023-02-28T12:41:00;15.90;44.00
30186;DHT22;31152;49.190;8.122;2023-02-28T12:43:38;16.50;43.30
30186;DHT22;31152;49.190;8.122;2023-02-28T12:46:19;16.80;42.90
30186;DHT22;31152;49.190;8.122;2023-02-28T12:48:55;17.00;41.90
30186;DHT22;31152;49.190;8.122;2023-02-28T12:51:24;17.10;41.20
30186;DHT22;31152;49.190;8.122;2023-02-28T12:57:13;17.50;41.00
30186;DHT22;31152;49.190;8.122;2023-02-28T12:59:48;18.00;40.30
30186;DHT22;31152;49.190;8.122;2023-02-28T13:02:48;18.60;39.20
30186;DHT22;31152;49.190;8.122;2023-02-28T13:09:05;19.40;37.70
30186;DHT22;31152;49.190;8.122;2023-02-28T13:11:43;19.80;37.70
30186;DHT22;31152;49.190;8.122;2023-02-28T13:17:09;19.90;36.90
30186;DHT22;31152;49.190;8.122;2023-02-28T13:19:41;20.10;37.00
30186;DHT22;31152;49.190;8.122;2023-02-28T13:22:39;20.00;35.90
30186;DHT22;31152;49.190;8.122;2023-02-28T13:27:53;19.20;36.00
30186;DHT22;31152;49.190;8.122;2023-02-28T13:33:34;19.00;36.90
30186;DHT22;31152;49.190;8.122;2023-02-28T13:38:38;19.50;36.50
30186;DHT22;31152;49.190;8.122;2023-02-28T13:57:47;18.80;36.40
30186;DHT22;31152;49.190;8.122;2023-02-28T14:06:32;19.00;36.00
30186;DHT22;31152;49.190;8.122;2023-02-28T14:09:16;19.10;35.70
30186;DHT22;31152;49.190;8.122;2023-02-28T14:11:45;19.00;35.80
30186;DHT22;31152;49.190;8.122;2023-02-28T14:17:13;18.70;36.30
30186;DHT22;31152;49.190;8.122;2023-02-28T14:19:46;18.70;36.60
30186;DHT22;31152;49.190;8.122;2023-02-28T14:33:57;18.80;36.30
30186;DHT22;31152;49.190;8.122;2023-02-28T14:36:35;18.70;36.30
30186;DHT22;31152;49.190;8.122;2023-02-28T14:39:32;18.80;36.70
30186;DHT22;31152;49.190;8.122;2023-02-28T14:41:59;18.80;36.40
30186;DHT22;31152;49.190;8.122;2023-02-28T14:44:31;18.60;36.40
30186;DHT22;31152;49.190;8.122;2023-02-28T14:47:02;18.60;36.80
30186;DHT22;31152;49.190;8.122;2023-02-28T14:49:36;18.30;36.80
30186;DHT22;31152;49.190;8.122;2023-02-28T14:54:37;17.80;37.50
30186;DHT22;31152;49.190;8.122;2023-02-28T14:57:05;17.60;38.40
30186;DHT22;31152;49.190;8.122;2023-02-28T14:59:36;17.30;38.20
30186;DHT22;31152;49.190;8.122;2023-02-28T15:02:15;17.00;38.40
30186;DHT22;31152;49.190;8.122;2023-02-28T15:04:53;16.80;38.80
30186;DHT22;31152;49.190;8.122;2023-02-28T15:07:21;16.60;39.20
30186;DHT22;31152;49.190;8.122;2023-02-28T15:10:16;16.00;39.90
30186;DHT22;31152;49.190;8.122;2023-02-28T15:12:52;15.70;40.40
30186;DHT22;31152;49.190;8.122;2023-02-28T15:15:21;15.30;40.50
30186;DHT22;31152;49.190;8.122;2023-02-28T15:18:03;15.40;41.10
30186;DHT22;31152;49.190;8.122;2023-02-28T15:20:32;15.80;40.60
30186;DHT22;31152;49.190;8.122;2023-02-28T15:23:00;15.90;40.10
30186;DHT22;31152;49.190;8.122;2023-02-28T15:25:27;15.90;40.20
30186;DHT22;31152;49.190;8.122;2023-02-28T15:27:57;15.70;40.60
30186;DHT22;31152;49.190;8.122;2023-02-28T15:30:29;15.20;41.00
30186;DHT22;31152;49.190;8.122;2023-02-28T15:33:24;14.80;41.40
30186;DHT22;31152;49.190;8.122;2023-02-28T15:35:52;14.20;42.40
30186;DHT22;31152;49.190;8.122;2023-02-28T15:38:29;14.00;43.30
30186;DHT22;31152;49.190;8.122;2023-02-28T15:41:02;13.80;43.60
30186;DHT22;31152;49.190;8.122;2023-02-28T15:43:37;13.60;44.10
30186;DHT22;31152;49.190;8.122;2023-02-28T15:46:14;13.40;44.60
30186;DHT22;31152;49.190;8.122;2023-02-28T15:48:55;13.20;44.90
30186;DHT22;31152;49.190;8.122;2023-02-28T15:51:33;13.00;45.40
30186;DHT22;31152;49.190;8.122;2023-02-28T15:54:06;12.90;45.60
30186;DHT22;31152;49.190;8.122;2023-02-28T15:56:40;12.80;45.70
30186;DHT22;31152;49.190;8.122;2023-02-28T15:59:16;12.70;45.50
30186;DHT22;31152;49.190;8.122;2023-02-28T16:01:44;12.60;45.90
30186;DHT22;31152;49.190;8.122;2023-02-28T16:04:16;12.50;46.10
30186;DHT22;31152;49.190;8.122;2023-02-28T16:06:45;12.40;46.30
30186;DHT22;31152;49.190;8.122;2023-02-28T16:09:17;12.30;46.30
30186;DHT22;31152;49.190;8.122;2023-02-28T16:11:47;12.40;46.40
30186;DHT22;31152;49.190;8.122;2023-02-28T16:14:23;12.40;46.10
30186;DHT22;31152;49.190;8.122;2023-02-28T16:16:57;12.70;46.00
30186;DHT22;31152;49.190;8.122;2023-02-28T16:19:32;12.90;45.70
30186;DHT22;31152;49.190;8.122;2023-02-28T16:22:00;13.00;45.50
30186;DHT22;31152;49.190;8.122;2023-02-28T16:24:27;13.20;45.50
30186;DHT22;31152;49.190;8.122;2023-02-28T16:26:58;13.40;45.40
30186;DHT22;31152;49.190;8.122;2023-02-28T16:29:34;13.60;45.00
30186;DHT22;31152;49.190;8.122;2023-02-28T16:32:07;13.70;45.10
30186;DHT22;31152;49.190;8.122;2023-02-28T16:34:37;13.90;44.50
30186;DHT22;31152;49.190;8.122;2023-02-28T16:37:09;13.80;44.40
30186;DHT22;31152;49.190;8.122;2023-02-28T16:39:37;13.80;44.60
30186;DHT22;31152;49.190;8.122;2023-02-28T16:42:04;13.50;44.70
30186;DHT22;31152;49.190;8.122;2023-02-28T16:44:35;12.80;45.60
30186;DHT22;31152;49.190;8.122;2023-02-28T16:47:03;12.00;47.00
30186;DHT22;31152;49.190;8.122;2023-02-28T16:49:30;11.10;48.40
30186;DHT22;31152;49.190;8.122;2023-02-28T16:51:57;10.50;49.90
30186;DHT22;31152;49.190;8.122;2023-02-28T16:54:26;9.90;51.10
30186;DHT22;31152;49.190;8.122;2023-02-28T16:56:55;9.50;52.20
30186;DHT22;31152;49.190;8.122;2023-02-28T16:59:24;9.10;53.10
30186;DHT22;31152;49.190;8.122;2023-02-28T17:01:54;8.70;53.90
30186;DHT22;31152;49.190;8.122;2023-02-28T17:04:25;8.40;54.80
30186;DHT22;31152;49.190;8.122;2023-02-28T17:06:55;8.10;55.50
30186;DHT22;31152;49.190;8.122;2023-02-28T17:09:22;7.90;56.30
30186;DHT22;31152;49.190;8.122;2023-02-28T17:12:07;7.60;56.90
30186;DHT22;31152;49.190;8.122;2023-02-28T17:14:34;7.40;57.60
30186;DHT22;31152;49.190;8.122;2023-02-28T17:17:01;7.20;58.30
30186;DHT22;31152;49.190;8.122;2023-02-28T17:19:28;7.00;58.90
30186;DHT22;31152;49.190;8.122;2023-02-28T17:21:55;6.80;59.20
30186;DHT22;31152;49.190;8.122;2023-02-28T17:24:25;6.70;59.80
30186;DHT22;31152;49.190;8.122;2023-02-28T17:26:59;6.50;60.40
30186;DHT22;31152;49.190;8.122;2023-02-28T17:29:26;6.40;61.00
30186;DHT22;31152;49.190;8.122;2023-02-28T17:31:53;6.30;61.50
30186;DHT22;31152;49.190;8.122;2023-02-28T17:34:20;6.10;61.80
30186;DHT22;31152;49.190;8.122;2023-02-28T17:36:50;6.00;62.20
30186;DHT22;31152;49.190;8.122;2023-02-28T17:39:18;5.90;62.70
30186;DHT22;31152;49.190;8.122;2023-02-28T17:41:54;5.80;63.20
30186;DHT22;31152;49.190;8.122;2023-02-28T17:44:22;5.70;63.60
30186;DHT22;31152;49.190;8.122;2023-02-28T17:46:51;5.60;64.00
30186;DHT22;31152;49.190;8.122;2023-02-28T17:49:23;5.60;64.30
30186;DHT22;31152;49.190;8.122;2023-02-28T17:51:52;5.50;64.90
30186;DHT22;31152;49.190;8.122;2023-02-28T17:54:19;5.50;65.30
30186;DHT22;31152;49.190;8.122;2023-02-28T17:56:46;5.40;65.70
30186;DHT22;31152;49.190;8.122;2023-02-28T17:59:13;5.30;65.90
30186;DHT22;31152;49.190;8.122;2023-02-28T18:01:42;5.30;66.00
30186;DHT22;31152;49.190;8.122;2023-02-28T18:04:12;5.20;66.50
30186;DHT22;31152;49.190;8.122;2023-02-28T18:06:40;5.10;67.10
30186;DHT22;31152;49.190;8.122;2023-02-28T18:09:19;4.90;67.50
30186;DHT22;31152;49.190;8.122;2023-02-28T18:11:50;4.90;67.90
30186;DHT22;31152;49.190;8.122;2023-02-28T18:14:18;4.80;68.40
30186;DHT22;31152;49.190;8.122;2023-02-28T18:16:46;4.70;68.70
30186;DHT22;31152;49.190;8.122;2023-02-28T18:19:13;4.60;69.00
30186;DHT22;31152;49.190;8.122;2023-02-28T18:21:44;4.60;69.40
30186;DHT22;31152;49.190;8.122;2023-02-28T18:24:12;4.50;69.60
30186;DHT22;31152;49.190;8.122;2023-02-28T18:26:40;4.40;70.30